sensor_id;sensor_type;location;lat;lon;timestamp;P1;durP1;ratioP1;P2;durP2;ratioP2
79631;SDS011;69108;41.120;16.874;2023-12-28T00:01:24;12.98;;;4.70;;
79631;SDS011;69108;41.120;16.874;2023-12-28T00:03:51;13.43;;;5.30;;
79631;SDS011;69108;41.120;16.874;2023-12-28T00:06:19;13.35;;;5.40;;
79631;SDS011;69108;41.120;16.874;2023-12-28T00:11:13;15.20;;;5.55;;
79631;SDS011;69108;41.120;16.874;2023-12-28T00:13:41;17.05;;;5.57;;
79631;SDS011;69108;41.120;16.874;2023-12-28T00:16:08;15.75;;;5.68;;
79631;SDS011;69108;41.120;16.874;2023-12-28T00:18:35;15.52;;;5.53;;
79631;SDS011;69108;41.120;16.874;2023-12-28T00:21:01;15.70;;;5.50;;
79631;SDS011;69108;41.120;16.874;2023-12-28T00:23:29;13.80;;;5.43;;
79631;SDS011;69108;41.120;16.874;2023-12-28T00:35:42;13.77;;;5.40;;
79631;SDS011;69108;41.120;16.874;2023-12-28T00:38:09;14.77;;;6.05;;
79631;SDS011;69108;41.120;16.874;2023-12-28T00:40:37;16.02;;;5.43;;
79631;SDS011;69108;41.120;16.874;2023-12-28T00:45:31;15.43;;;5.55;;
79631;SDS011;69108;41.120;16.874;2023-12-28T00:47:57;15.10;;;5.35;;
79631;SDS011;69108;41.120;16.874;2023-12-28T00:50:24;19.30;;;6.50;;
79631;SDS011;69108;41.120;16.874;2023-12-28T01:00:13;17.38;;;5.30;;
79631;SDS011;69108;41.120;16.874;2023-12-28T01:02:40;16.42;;;6.45;;
79631;SDS011;69108;41.120;16.874;2023-12-28T01:05:07;19.40;;;6.85;;
79631;SDS011;69108;41.120;16.874;2023-12-28T01:07:34;17.98;;;6.50;;
79631;SDS011;69108;41.120;16.874;2023-12-28T01:10:01;23.35;;;7.97;;
79631;SDS011;69108;41.120;16.874;2023-12-28T01:12:28;18.77;;;7.15;;
79631;SDS011;69108;41.120;16.874;2023-12-28T01:17:24;19.27;;;6.38;;
79631;SDS011;69108;41.120;16.874;2023-12-28T01:19:51;18.38;;;6.35;;
79631;SDS011;69108;41.120;16.874;2023-12-28T01:22:18;17.45;;;5.45;;
79631;SDS011;69108;41.120;16.874;2023-12-28T01:24:45;13.55;;;5.18;;
79631;SDS011;69108;41.120;16.874;2023-12-28T01:27:14;20.75;;;5.25;;
79631;SDS011;69108;41.120;16.874;2023-12-28T01:29:41;15.82;;;5.32;;
79631;SDS011;69108;41.120;16.874;2023-12-28T01:32:09;13.07;;;5.28;;
79631;SDS011;69108;41.120;16.874;2023-12-28T01:37:02;13.68;;;4.97;;
79631;SDS011;69108;41.120;16.874;2023-12-28T01:39:29;15.75;;;5.57;;
79631;SDS011;69108;41.120;16.874;2023-12-28T01:41:56;17.05;;;5.38;;
79631;SDS011;69108;41.120;16.874;2023-12-28T01:44:23;19.67;;;6.50;;
79631;SDS011;69108;41.120;16.874;2023-12-28T01:46:49;21.25;;;5.93;;
79631;SDS011;69108;41.120;16.874;2023-12-28T01:49:18;17.50;;;5.95;;
79631;SDS011;69108;41.120;16.874;2023-12-28T01:54:12;19.88;;;6.13;;
79631;SDS011;69108;41.120;16.874;2023-12-28T01:56:39;22.48;;;6.03;;
79631;SDS011;69108;41.120;16.874;2023-12-28T01:59:06;19.70;;;6.05;;
79631;SDS011;69108;41.120;16.874;2023-12-28T02:01:33;22.70;;;7.55;;
79631;SDS011;69108;41.120;16.874;2023-12-28T02:04:00;19.27;;;6.55;;
79631;SDS011;69108;41.120;16.874;2023-12-28T02:06:29;19.27;;;6.60;;
79631;SDS011;69108;41.120;16.874;2023-12-28T02:08:55;20.33;;;6.70;;
79631;SDS011;69108;41.120;16.874;2023-12-28T02:11:22;17.67;;;6.57;;
79631;SDS011;69108;41.120;16.874;2023-12-28T02:13:49;15.57;;;5.93;;
79631;SDS011;69108;41.120;16.874;2023-12-28T02:16:17;19.02;;;6.35;;
79631;SDS011;69108;41.120;16.874;2023-12-28T02:18:50;20.95;;;6.15;;
79631;SDS011;69108;41.120;16.874;2023-12-28T02:21:20;22.77;;;6.43;;
79631;SDS011;69108;41.120;16.874;2023-12-28T02:23:49;14.65;;;5.60;;
79631;SDS011;69108;41.120;16.874;2023-12-28T02:26:17;18.75;;;5.80;;
79631;SDS011;69108;41.120;16.874;2023-12-28T02:31:13;14.18;;;4.93;;
79631;SDS011;69108;41.120;16.874;2023-12-28T02:33:48;16.70;;;5.53;;
79631;SDS011;69108;41.120;16.874;2023-12-28T02:36:17;16.00;;;5.47;;
79631;SDS011;69108;41.120;16.874;2023-12-28T02:38:48;15.63;;;4.82;;
79631;SDS011;69108;41.120;16.874;2023-12-28T02:41:15;14.32;;;4.03;;
79631;SDS011;69108;41.120;16.874;2023-12-28T02:43:46;11.15;;;4.50;;
79631;SDS011;69108;41.120;16.874;2023-12-28T02:46:15;11.60;;;4.20;;
79631;SDS011;69108;41.120;16.874;2023-12-28T02:48:41;11.73;;;4.13;;
79631;SDS011;69108;41.120;16.874;2023-12-28T02:51:08;12.23;;;3.78;;
79631;SDS011;69108;41.120;16.874;2023-12-28T02:53:35;12.35;;;4.13;;
79631;SDS011;69108;41.120;16.874;2023-12-28T02:56:01;12.35;;;3.70;;
79631;SDS011;69108;41.120;16.874;2023-12-28T02:58:29;13.40;;;4.10;;
79631;SDS011;69108;41.120;16.874;2023-12-28T03:05:49;13.93;;;4.75;;
79631;SDS011;69108;41.120;16.874;2023-12-28T03:08:16;25.90;;;6.35;;
79631;SDS011;69108;41.120;16.874;2023-12-28T03:10:43;13.80;;;4.63;;
79631;SDS011;69108;41.120;16.874;2023-12-28T03:13:09;14.65;;;4.43;;
79631;SDS011;69108;41.120;16.874;2023-12-28T03:15:38;12.15;;;4.18;;
79631;SDS011;69108;41.120;16.874;2023-12-28T03:18:04;16.38;;;4.40;;
79631;SDS011;69108;41.120;16.874;2023-12-28T03:20:31;10.25;;;3.67;;
79631;SDS011;69108;41.120;16.874;2023-12-28T03:22:58;13.70;;;4.80;;
79631;SDS011;69108;41.120;16.874;2023-12-28T03:25:24;14.35;;;4.25;;
79631;SDS011;69108;41.120;16.874;2023-12-28T03:27:51;11.88;;;3.75;;
79631;SDS011;69108;41.120;16.874;2023-12-28T03:30:20;13.18;;;4.63;;
79631;SDS011;69108;41.120;16.874;2023-12-28T03:32:48;12.07;;;4.28;;
79631;SDS011;69108;41.120;16.874;2023-12-28T03:37:41;12.48;;;4.05;;
79631;SDS011;69108;41.120;16.874;2023-12-28T03:40:08;11.45;;;4.18;;
79631;SDS011;69108;41.120;16.874;2023-12-28T03:42:36;13.27;;;4.03;;
79631;SDS011;69108;41.120;16.874;2023-12-28T03:45:03;11.38;;;3.55;;
79631;SDS011;69108;41.120;16.874;2023-12-28T03:47:31;15.48;;;4.30;;
79631;SDS011;69108;41.120;16.874;2023-12-28T03:49:59;11.77;;;3.92;;
79631;SDS011;69108;41.120;16.874;2023-12-28T03:54:52;13.60;;;4.07;;
79631;SDS011;69108;41.120;16.874;2023-12-28T03:57:19;10.65;;;4.10;;
79631;SDS011;69108;41.120;16.874;2023-12-28T03:59:45;12.55;;;4.45;;
79631;SDS011;69108;41.120;16.874;2023-12-28T04:02:12;11.68;;;3.63;;
79631;SDS011;69108;41.120;16.874;2023-12-28T04:04:39;13.02;;;4.45;;
79631;SDS011;69108;41.120;16.874;2023-12-28T04:07:07;11.50;;;3.38;;
79631;SDS011;69108;41.120;16.874;2023-12-28T04:12:01;7.72;;;3.33;;
79631;SDS011;69108;41.120;16.874;2023-12-28T04:14:27;9.15;;;3.50;;
79631;SDS011;69108;41.120;16.874;2023-12-28T04:16:54;10.50;;;3.60;;
79631;SDS011;69108;41.120;16.874;2023-12-28T04:19:21;9.93;;;4.00;;
79631;SDS011;69108;41.120;16.874;2023-12-28T04:21:48;14.15;;;3.70;;
79631;SDS011;69108;41.120;16.874;2023-12-28T04:24:16;15.77;;;5.25;;
79631;SDS011;69108;41.120;16.874;2023-12-28T04:26:43;15.85;;;5.15;;
79631;SDS011;69108;41.120;16.874;2023-12-28T04:29:10;19.67;;;5.30;;
79631;SDS011;69108;41.120;16.874;2023-12-28T04:31:39;14.05;;;4.80;;
79631;SDS011;69108;41.120;16.874;2023-12-28T04:34:06;14.52;;;4.85;;
79631;SDS011;69108;41.120;16.874;2023-12-28T04:36:39;15.68;;;5.72;;
79631;SDS011;69108;41.120;16.874;2023-12-28T04:39:06;17.58;;;5.40;;
79631;SDS011;69108;41.120;16.874;2023-12-28T04:41:34;19.73;;;5.60;;
79631;SDS011;69108;41.120;16.874;2023-12-28T04:46:28;20.45;;;6.47;;
79631;SDS011;69108;41.120;16.874;2023-12-28T04:48:55;28.38;;;7.45;;
79631;SDS011;69108;41.120;16.874;2023-12-28T04:51:22;19.20;;;7.53;;
79631;SDS011;69108;41.120;16.874;2023-12-28T04:53:48;19.63;;;6.35;;
79631;SDS011;69108;41.120;16.874;2023-12-28T04:56:17;22.85;;;7.13;;
79631;SDS011;69108;41.120;16.874;2023-12-28T04:58:46;21.63;;;7.35;;
79631;SDS011;69108;41.120;16.874;2023-12-28T05:03:39;32.65;;;10.60;;
79631;SDS011;69108;41.120;16.874;2023-12-28T05:06:06;33.28;;;11.32;;
79631;SDS011;69108;41.120;16.874;2023-12-28T05:08:33;28.45;;;10.85;;
79631;SDS011;69108;41.120;16.874;2023-12-28T05:11:00;30.08;;;10.15;;
79631;SDS011;69108;41.120;16.874;2023-12-28T05:13:27;37.53;;;10.90;;
79631;SDS011;69108;41.120;16.874;2023-12-28T05:15:55;29.15;;;10.13;;
79631;SDS011;69108;41.120;16.874;2023-12-28T05:18:22;32.13;;;10.25;;
79631;SDS011;69108;41.120;16.874;2023-12-28T05:20:49;30.02;;;9.25;;
79631;SDS011;69108;41.120;16.874;2023-12-28T05:23:15;24.65;;;8.95;;
79631;SDS011;69108;41.120;16.874;2023-12-28T05:25:42;24.33;;;8.95;;
79631;SDS011;69108;41.120;16.874;2023-12-28T05:28:09;25.60;;;7.90;;
79631;SDS011;69108;41.120;16.874;2023-12-28T05:30:36;23.15;;;8.00;;
79631;SDS011;69108;41.120;16.874;2023-12-28T05:33:04;24.23;;;7.63;;
79631;SDS011;69108;41.120;16.874;2023-12-28T05:35:31;23.17;;;6.93;;
79631;SDS011;69108;41.120;16.874;2023-12-28T05:37:58;20.90;;;7.95;;
79631;SDS011;69108;41.120;16.874;2023-12-28T05:40:24;19.55;;;7.50;;
79631;SDS011;69108;41.120;16.874;2023-12-28T05:42:51;18.90;;;6.30;;
79631;SDS011;69108;41.120;16.874;2023-12-28T05:45:18;21.42;;;6.15;;
79631;SDS011;69108;41.120;16.874;2023-12-28T05:47:45;14.88;;;5.93;;
79631;SDS011;69108;41.120;16.874;2023-12-28T05:50:13;14.38;;;5.10;;
79631;SDS011;69108;41.120;16.874;2023-12-28T05:55:07;9.95;;;4.38;;
79631;SDS011;69108;41.120;16.874;2023-12-28T05:57:34;13.75;;;4.93;;
79631;SDS011;69108;41.120;16.874;2023-12-28T06:00:01;15.65;;;4.90;;
79631;SDS011;69108;41.120;16.874;2023-12-28T06:04:56;12.20;;;4.20;;
79631;SDS011;69108;41.120;16.874;2023-12-28T06:07:24;18.08;;;4.95;;
79631;SDS011;69108;41.120;16.874;2023-12-28T06:09:51;20.73;;;4.72;;
79631;SDS011;69108;41.120;16.874;2023-12-28T06:12:18;13.90;;;4.72;;
79631;SDS011;69108;41.120;16.874;2023-12-28T06:14:44;11.55;;;4.53;;
79631;SDS011;69108;41.120;16.874;2023-12-28T06:17:11;13.85;;;4.30;;
79631;SDS011;69108;41.120;16.874;2023-12-28T06:19:40;14.38;;;4.75;;
79631;SDS011;69108;41.120;16.874;2023-12-28T06:22:07;9.90;;;3.92;;
79631;SDS011;69108;41.120;16.874;2023-12-28T06:24:38;15.13;;;4.90;;
79631;SDS011;69108;41.120;16.874;2023-12-28T06:27:05;10.75;;;5.07;;
79631;SDS011;69108;41.120;16.874;2023-12-28T06:29:35;11.38;;;4.20;;
79631;SDS011;69108;41.120;16.874;2023-12-28T06:32:02;13.07;;;4.75;;
79631;SDS011;69108;41.120;16.874;2023-12-28T06:34:29;10.88;;;4.22;;
79631;SDS011;69108;41.120;16.874;2023-12-28T06:36:55;9.95;;;4.10;;
79631;SDS011;69108;41.120;16.874;2023-12-28T06:39:22;12.40;;;3.90;;
79631;SDS011;69108;41.120;16.874;2023-12-28T06:41:50;10.68;;;3.92;;
79631;SDS011;69108;41.120;16.874;2023-12-28T06:46:43;9.95;;;3.40;;
79631;SDS011;69108;41.120;16.874;2023-12-28T06:49:10;9.20;;;3.47;;
79631;SDS011;69108;41.120;16.874;2023-12-28T06:51:37;8.63;;;3.70;;
79631;SDS011;69108;41.120;16.874;2023-12-28T06:54:04;10.73;;;3.65;;
79631;SDS011;69108;41.120;16.874;2023-12-28T06:56:31;10.85;;;4.10;;
79631;SDS011;69108;41.120;16.874;2023-12-28T06:58:59;9.88;;;4.68;;
79631;SDS011;69108;41.120;16.874;2023-12-28T07:03:52;9.90;;;4.22;;
79631;SDS011;69108;41.120;16.874;2023-12-28T07:06:19;10.52;;;4.03;;
79631;SDS011;69108;41.120;16.874;2023-12-28T07:08:46;12.23;;;4.38;;
79631;SDS011;69108;41.120;16.874;2023-12-28T07:11:13;11.07;;;4.75;;
79631;SDS011;69108;41.120;16.874;2023-12-28T07:13:40;19.88;;;6.03;;
79631;SDS011;69108;41.120;16.874;2023-12-28T07:16:08;12.57;;;4.80;;
79631;SDS011;69108;41.120;16.874;2023-12-28T07:21:02;17.10;;;5.50;;
79631;SDS011;69108;41.120;16.874;2023-12-28T07:23:29;12.88;;;6.05;;
79631;SDS011;69108;41.120;16.874;2023-12-28T07:25:56;18.10;;;6.30;;
79631;SDS011;69108;41.120;16.874;2023-12-28T07:28:23;17.85;;;6.93;;
79631;SDS011;69108;41.120;16.874;2023-12-28T07:30:50;19.42;;;7.53;;
79631;SDS011;69108;41.120;16.874;2023-12-28T07:33:18;14.93;;;7.35;;
79631;SDS011;69108;41.120;16.874;2023-12-28T07:38:13;22.95;;;8.05;;
79631;SDS011;69108;41.120;16.874;2023-12-28T07:40:40;21.63;;;7.07;;
79631;SDS011;69108;41.120;16.874;2023-12-28T07:43:07;15.85;;;7.20;;
79631;SDS011;69108;41.120;16.874;2023-12-28T07:45:34;20.88;;;8.75;;
79631;SDS011;69108;41.120;16.874;2023-12-28T07:48:04;26.48;;;10.98;;
79631;SDS011;69108;41.120;16.874;2023-12-28T07:50:32;25.10;;;8.95;;
79631;SDS011;69108;41.120;16.874;2023-12-28T07:53:00;19.73;;;9.30;;
79631;SDS011;69108;41.120;16.874;2023-12-28T07:55:26;25.52;;;10.45;;
79631;SDS011;69108;41.120;16.874;2023-12-28T07:57:53;24.90;;;10.30;;
79631;SDS011;69108;41.120;16.874;2023-12-28T08:00:20;24.60;;;9.05;;
79631;SDS011;69108;41.120;16.874;2023-12-28T08:02:47;27.52;;;11.82;;
79631;SDS011;69108;41.120;16.874;2023-12-28T08:05:13;26.73;;;11.60;;
79631;SDS011;69108;41.120;16.874;2023-12-28T08:07:42;24.27;;;10.45;;
79631;SDS011;69108;41.120;16.874;2023-12-28T08:10:09;25.17;;;10.82;;
79631;SDS011;69108;41.120;16.874;2023-12-28T08:12:36;22.92;;;10.07;;
79631;SDS011;69108;41.120;16.874;2023-12-28T08:15:03;26.75;;;11.95;;
79631;SDS011;69108;41.120;16.874;2023-12-28T08:17:31;30.73;;;11.70;;
79631;SDS011;69108;41.120;16.874;2023-12-28T08:19:58;23.55;;;9.60;;
79631;SDS011;69108;41.120;16.874;2023-12-28T08:22:24;26.20;;;10.50;;
79631;SDS011;69108;41.120;16.874;2023-12-28T08:24:54;22.23;;;10.60;;
79631;SDS011;69108;41.120;16.874;2023-12-28T08:27:22;27.50;;;11.57;;
79631;SDS011;69108;41.120;16.874;2023-12-28T08:29:49;27.48;;;10.27;;
79631;SDS011;69108;41.120;16.874;2023-12-28T08:32:16;28.17;;;11.68;;
79631;SDS011;69108;41.120;16.874;2023-12-28T08:34:43;31.20;;;10.55;;
79631;SDS011;69108;41.120;16.874;2023-12-28T08:37:10;24.23;;;10.55;;
79631;SDS011;69108;41.120;16.874;2023-12-28T08:39:37;28.60;;;11.25;;
79631;SDS011;69108;41.120;16.874;2023-12-28T08:42:05;29.25;;;12.10;;
79631;SDS011;69108;41.120;16.874;2023-12-28T08:46:59;28.02;;;12.60;;
79631;SDS011;69108;41.120;16.874;2023-12-28T08:51:54;25.27;;;10.95;;
79631;SDS011;69108;41.120;16.874;2023-12-28T08:54:21;31.85;;;12.15;;
79631;SDS011;69108;41.120;16.874;2023-12-28T08:56:48;26.88;;;11.70;;
79631;SDS011;69108;41.120;16.874;2023-12-28T08:59:16;27.08;;;12.45;;
79631;SDS011;69108;41.120;16.874;2023-12-28T09:06:36;53.50;;;21.50;;
79631;SDS011;69108;41.120;16.874;2023-12-28T09:09:03;42.28;;;19.17;;
79631;SDS011;69108;41.120;16.874;2023-12-28T09:11:31;47.35;;;16.75;;
79631;SDS011;69108;41.120;16.874;2023-12-28T09:13:58;40.40;;;14.65;;
79631;SDS011;69108;41.120;16.874;2023-12-28T09:16:26;29.95;;;14.13;;
79631;SDS011;69108;41.120;16.874;2023-12-28T09:18:53;31.38;;;13.48;;
79631;SDS011;69108;41.120;16.874;2023-12-28T09:21:20;34.47;;;15.52;;
79631;SDS011;69108;41.120;16.874;2023-12-28T09:23:47;25.83;;;12.55;;
79631;SDS011;69108;41.120;16.874;2023-12-28T09:26:14;36.05;;;12.95;;
79631;SDS011;69108;41.120;16.874;2023-12-28T09:28:40;29.70;;;11.40;;
79631;SDS011;69108;41.120;16.874;2023-12-28T09:31:07;23.42;;;11.35;;
79631;SDS011;69108;41.120;16.874;2023-12-28T09:33:35;22.60;;;11.35;;
79631;SDS011;69108;41.120;16.874;2023-12-28T09:36:03;27.48;;;12.32;;
79631;SDS011;69108;41.120;16.874;2023-12-28T09:38:30;29.55;;;12.60;;
79631;SDS011;69108;41.120;16.874;2023-12-28T09:40:57;28.10;;;12.80;;
79631;SDS011;69108;41.120;16.874;2023-12-28T09:43:31;27.33;;;12.43;;
79631;SDS011;69108;41.120;16.874;2023-12-28T09:46:05;33.42;;;13.90;;
79631;SDS011;69108;41.120;16.874;2023-12-28T09:48:32;26.48;;;13.82;;
79631;SDS011;69108;41.120;16.874;2023-12-28T09:51:01;30.48;;;14.00;;
79631;SDS011;69108;41.120;16.874;2023-12-28T09:53:28;27.90;;;13.27;;
79631;SDS011;69108;41.120;16.874;2023-12-28T09:55:54;30.73;;;13.57;;
79631;SDS011;69108;41.120;16.874;2023-12-28T09:58:21;28.45;;;13.52;;
79631;SDS011;69108;41.120;16.874;2023-12-28T10:00:49;26.42;;;12.75;;
79631;SDS011;69108;41.120;16.874;2023-12-28T10:03:16;26.08;;;12.80;;
79631;SDS011;69108;41.120;16.874;2023-12-28T10:05:44;27.17;;;11.38;;
79631;SDS011;69108;41.120;16.874;2023-12-28T10:08:15;28.05;;;13.50;;
79631;SDS011;69108;41.120;16.874;2023-12-28T10:10:42;28.13;;;12.35;;
79631;SDS011;69108;41.120;16.874;2023-12-28T10:13:16;28.77;;;11.85;;
79631;SDS011;69108;41.120;16.874;2023-12-28T10:15:43;20.98;;;11.00;;
79631;SDS011;69108;41.120;16.874;2023-12-28T10:18:10;26.92;;;11.10;;
79631;SDS011;69108;41.120;16.874;2023-12-28T10:20:37;22.13;;;10.00;;
79631;SDS011;69108;41.120;16.874;2023-12-28T10:23:04;25.40;;;10.48;;
79631;SDS011;69108;41.120;16.874;2023-12-28T10:25:32;26.00;;;10.40;;
79631;SDS011;69108;41.120;16.874;2023-12-28T10:28:03;27.40;;;13.30;;
79631;SDS011;69108;41.120;16.874;2023-12-28T10:30:31;40.47;;;21.25;;
79631;SDS011;69108;41.120;16.874;2023-12-28T10:32:57;24.10;;;11.55;;
79631;SDS011;69108;41.120;16.874;2023-12-28T10:35:23;21.80;;;10.93;;
79631;SDS011;69108;41.120;16.874;2023-12-28T10:37:51;21.58;;;9.48;;
79631;SDS011;69108;41.120;16.874;2023-12-28T10:40:19;21.77;;;8.60;;
79631;SDS011;69108;41.120;16.874;2023-12-28T10:42:51;25.02;;;11.45;;
79631;SDS011;69108;41.120;16.874;2023-12-28T10:45:21;19.17;;;7.75;;
79631;SDS011;69108;41.120;16.874;2023-12-28T10:47:53;18.33;;;7.40;;
79631;SDS011;69108;41.120;16.874;2023-12-28T10:50:26;16.58;;;7.00;;
79631;SDS011;69108;41.120;16.874;2023-12-28T10:52:59;15.88;;;6.90;;
79631;SDS011;69108;41.120;16.874;2023-12-28T10:55:39;12.98;;;5.25;;
79631;SDS011;69108;41.120;16.874;2023-12-28T10:58:12;17.75;;;6.35;;
79631;SDS011;69108;41.120;16.874;2023-12-28T11:00:46;14.13;;;5.63;;
79631;SDS011;69108;41.120;16.874;2023-12-28T11:03:22;12.32;;;5.03;;
79631;SDS011;69108;41.120;16.874;2023-12-28T11:05:53;10.77;;;4.97;;
79631;SDS011;69108;41.120;16.874;2023-12-28T11:08:22;15.07;;;4.80;;
79631;SDS011;69108;41.120;16.874;2023-12-28T11:10:50;10.02;;;4.28;;
79631;SDS011;69108;41.120;16.874;2023-12-28T11:13:18;10.10;;;4.18;;
79631;SDS011;69108;41.120;16.874;2023-12-28T11:15:47;30.35;;;10.73;;
79631;SDS011;69108;41.120;16.874;2023-12-28T11:18:16;15.48;;;5.93;;
79631;SDS011;69108;41.120;16.874;2023-12-28T11:20:44;12.60;;;5.10;;
79631;SDS011;69108;41.120;16.874;2023-12-28T11:23:11;11.05;;;4.57;;
79631;SDS011;69108;41.120;16.874;2023-12-28T11:25:39;10.13;;;3.83;;
79631;SDS011;69108;41.120;16.874;2023-12-28T11:28:09;11.27;;;4.80;;
79631;SDS011;69108;41.120;16.874;2023-12-28T11:30:39;11.48;;;4.57;;
79631;SDS011;69108;41.120;16.874;2023-12-28T11:33:07;9.40;;;3.53;;
79631;SDS011;69108;41.120;16.874;2023-12-28T11:35:36;9.20;;;4.07;;
79631;SDS011;69108;41.120;16.874;2023-12-28T11:38:06;11.35;;;4.20;;
79631;SDS011;69108;41.120;16.874;2023-12-28T11:40:41;16.92;;;6.30;;
79631;SDS011;69108;41.120;16.874;2023-12-28T11:43:15;14.23;;;3.67;;
79631;SDS011;69108;41.120;16.874;2023-12-28T11:45:49;14.70;;;4.22;;
79631;SDS011;69108;41.120;16.874;2023-12-28T11:48:23;11.50;;;4.68;;
79631;SDS011;69108;41.120;16.874;2023-12-28T11:50:52;15.07;;;5.43;;
79631;SDS011;69108;41.120;16.874;2023-12-28T11:53:21;12.07;;;4.70;;
79631;SDS011;69108;41.120;16.874;2023-12-28T11:55:48;9.82;;;3.13;;
79631;SDS011;69108;41.120;16.874;2023-12-28T11:58:15;19.90;;;4.85;;
79631;SDS011;69108;41.120;16.874;2023-12-28T12:00:42;13.35;;;4.40;;
79631;SDS011;69108;41.120;16.874;2023-12-28T12:03:11;13.18;;;4.50;;
79631;SDS011;69108;41.120;16.874;2023-12-28T12:05:38;10.18;;;3.40;;
79631;SDS011;69108;41.120;16.874;2023-12-28T12:08:06;9.60;;;3.20;;
79631;SDS011;69108;41.120;16.874;2023-12-28T12:10:35;9.20;;;3.28;;
79631;SDS011;69108;41.120;16.874;2023-12-28T12:13:02;12.57;;;3.53;;
79631;SDS011;69108;41.120;16.874;2023-12-28T12:15:29;10.15;;;3.58;;
79631;SDS011;69108;41.120;16.874;2023-12-28T12:17:57;8.95;;;4.03;;
79631;SDS011;69108;41.120;16.874;2023-12-28T12:20:25;8.70;;;3.03;;
79631;SDS011;69108;41.120;16.874;2023-12-28T12:22:57;11.00;;;4.50;;
79631;SDS011;69108;41.120;16.874;2023-12-28T12:25:24;8.63;;;3.50;;
79631;SDS011;69108;41.120;16.874;2023-12-28T12:27:51;11.40;;;3.95;;
79631;SDS011;69108;41.120;16.874;2023-12-28T12:30:18;10.30;;;3.30;;
79631;SDS011;69108;41.120;16.874;2023-12-28T12:32:45;11.50;;;4.10;;
79631;SDS011;69108;41.120;16.874;2023-12-28T12:35:12;9.25;;;3.50;;
79631;SDS011;69108;41.120;16.874;2023-12-28T12:37:41;10.07;;;4.15;;
79631;SDS011;69108;41.120;16.874;2023-12-28T12:40:08;9.05;;;3.30;;
79631;SDS011;69108;41.120;16.874;2023-12-28T12:42:36;9.57;;;3.40;;
79631;SDS011;69108;41.120;16.874;2023-12-28T12:45:03;12.40;;;4.57;;
79631;SDS011;69108;41.120;16.874;2023-12-28T12:47:32;8.95;;;3.70;;
79631;SDS011;69108;41.120;16.874;2023-12-28T12:49:59;10.68;;;3.92;;
79631;SDS011;69108;41.120;16.874;2023-12-28T12:52:29;10.82;;;4.43;;
79631;SDS011;69108;41.120;16.874;2023-12-28T12:54:58;10.02;;;3.67;;
79631;SDS011;69108;41.120;16.874;2023-12-28T12:57:25;8.27;;;3.75;;
79631;SDS011;69108;41.120;16.874;2023-12-28T12:59:52;10.43;;;4.22;;
79631;SDS011;69108;41.120;16.874;2023-12-28T13:02:21;10.02;;;4.10;;
79631;SDS011;69108;41.120;16.874;2023-12-28T13:04:51;10.60;;;4.15;;
79631;SDS011;69108;41.120;16.874;2023-12-28T13:07:18;9.60;;;4.60;;
79631;SDS011;69108;41.120;16.874;2023-12-28T13:09:45;14.02;;;5.32;;
79631;SDS011;69108;41.120;16.874;2023-12-28T13:12:13;10.00;;;4.05;;
79631;SDS011;69108;41.120;16.874;2023-12-28T13:14:40;10.68;;;3.80;;
79631;SDS011;69108;41.120;16.874;2023-12-28T13:17:09;11.13;;;4.32;;
79631;SDS011;69108;41.120;16.874;2023-12-28T13:19:36;7.95;;;3.47;;
79631;SDS011;69108;41.120;16.874;2023-12-28T13:22:03;10.20;;;3.72;;
79631;SDS011;69108;41.120;16.874;2023-12-28T13:24:30;9.20;;;4.15;;
79631;SDS011;69108;41.120;16.874;2023-12-28T13:26:57;14.05;;;4.00;;
79631;SDS011;69108;41.120;16.874;2023-12-28T13:29:26;11.52;;;4.55;;
79631;SDS011;69108;41.120;16.874;2023-12-28T13:31:52;12.10;;;4.43;;
79631;SDS011;69108;41.120;16.874;2023-12-28T13:34:19;12.18;;;4.15;;
79631;SDS011;69108;41.120;16.874;2023-12-28T13:36:48;10.85;;;5.00;;
79631;SDS011;69108;41.120;16.874;2023-12-28T13:39:14;11.40;;;5.30;;
79631;SDS011;69108;41.120;16.874;2023-12-28T13:44:09;10.30;;;4.57;;
79631;SDS011;69108;41.120;16.874;2023-12-28T13:46:38;13.10;;;4.70;;
79631;SDS011;69108;41.120;16.874;2023-12-28T13:49:05;12.18;;;4.97;;
79631;SDS011;69108;41.120;16.874;2023-12-28T13:51:32;12.95;;;4.82;;
79631;SDS011;69108;41.120;16.874;2023-12-28T13:53:59;10.80;;;5.75;;
79631;SDS011;69108;41.120;16.874;2023-12-28T13:56:26;14.93;;;5.32;;
79631;SDS011;69108;41.120;16.874;2023-12-28T13:58:53;12.27;;;4.53;;
79631;SDS011;69108;41.120;16.874;2023-12-28T14:01:20;9.55;;;4.13;;
79631;SDS011;69108;41.120;16.874;2023-12-28T14:03:48;10.80;;;4.53;;
79631;SDS011;69108;41.120;16.874;2023-12-28T14:06:16;10.10;;;5.47;;
79631;SDS011;69108;41.120;16.874;2023-12-28T14:08:44;12.98;;;4.95;;
79631;SDS011;69108;41.120;16.874;2023-12-28T14:11:11;10.15;;;4.22;;
79631;SDS011;69108;41.120;16.874;2023-12-28T14:13:38;13.20;;;4.28;;
79631;SDS011;69108;41.120;16.874;2023-12-28T14:16:05;10.57;;;5.38;;
79631;SDS011;69108;41.120;16.874;2023-12-28T14:18:33;13.07;;;5.07;;
79631;SDS011;69108;41.120;16.874;2023-12-28T14:21:02;9.95;;;4.70;;
79631;SDS011;69108;41.120;16.874;2023-12-28T14:23:29;9.95;;;4.55;;
79631;SDS011;69108;41.120;16.874;2023-12-28T14:25:57;11.25;;;4.72;;
79631;SDS011;69108;41.120;16.874;2023-12-28T14:28:24;10.27;;;4.60;;
79631;SDS011;69108;41.120;16.874;2023-12-28T14:30:51;10.63;;;4.80;;
79631;SDS011;69108;41.120;16.874;2023-12-28T14:33:19;11.02;;;5.07;;
79631;SDS011;69108;41.120;16.874;2023-12-28T14:35:47;10.02;;;4.28;;
79631;SDS011;69108;41.120;16.874;2023-12-28T14:38:15;12.15;;;5.10;;
79631;SDS011;69108;41.120;16.874;2023-12-28T14:40:42;8.82;;;3.58;;
79631;SDS011;69108;41.120;16.874;2023-12-28T14:43:09;11.52;;;5.07;;
79631;SDS011;69108;41.120;16.874;2023-12-28T14:45:36;10.57;;;4.40;;
79631;SDS011;69108;41.120;16.874;2023-12-28T14:48:03;10.45;;;4.63;;
79631;SDS011;69108;41.120;16.874;2023-12-28T14:50:30;9.10;;;5.43;;
79631;SDS011;69108;41.120;16.874;2023-12-28T14:52:57;13.13;;;5.93;;
79631;SDS011;69108;41.120;16.874;2023-12-28T14:55:25;10.77;;;5.35;;
79631;SDS011;69108;41.120;16.874;2023-12-28T14:57:53;10.57;;;5.10;;
79631;SDS011;69108;41.120;16.874;2023-12-28T15:00:20;9.38;;;5.43;;
79631;SDS011;69108;41.120;16.874;2023-12-28T15:02:46;12.32;;;5.53;;
79631;SDS011;69108;41.120;16.874;2023-12-28T15:05:13;10.48;;;5.15;;
79631;SDS011;69108;41.120;16.874;2023-12-28T15:07:40;10.80;;;5.35;;
79631;SDS011;69108;41.120;16.874;2023-12-28T15:10:08;11.43;;;5.00;;
79631;SDS011;69108;41.120;16.874;2023-12-28T15:12:37;10.77;;;5.43;;
79631;SDS011;69108;41.120;16.874;2023-12-28T15:15:05;12.20;;;5.35;;
79631;SDS011;69108;41.120;16.874;2023-12-28T15:17:33;13.80;;;5.80;;
79631;SDS011;69108;41.120;16.874;2023-12-28T15:20:00;12.27;;;4.90;;
79631;SDS011;69108;41.120;16.874;2023-12-28T15:22:27;11.40;;;4.85;;
79631;SDS011;69108;41.120;16.874;2023-12-28T15:24:55;10.18;;;5.45;;
79631;SDS011;69108;41.120;16.874;2023-12-28T15:27:23;16.05;;;7.07;;
79631;SDS011;69108;41.120;16.874;2023-12-28T15:29:51;11.13;;;6.43;;
79631;SDS011;69108;41.120;16.874;2023-12-28T15:32:18;14.57;;;6.30;;
79631;SDS011;69108;41.120;16.874;2023-12-28T15:34:45;12.68;;;6.15;;
79631;SDS011;69108;41.120;16.874;2023-12-28T15:37:12;11.93;;;6.50;;
79631;SDS011;69108;41.120;16.874;2023-12-28T15:39:38;11.77;;;6.82;;